sensor_id;sensor_type;location;lat;lon;timestamp;P1;durP1;ratioP1;P2;durP2;ratioP2
16775;SDS011;8505;49.456;8.164;2022-12-10T00:01:06;26.77;;;16.70;;
16775;SDS011;8505;49.456;8.164;2022-12-10T00:03:35;29.63;;;16.98;;
16775;SDS011;8505;49.456;8.164;2022-12-10T00:06:05;29.17;;;17.17;;
16775;SDS011;8505;49.456;8.164;2022-12-10T00:08:34;26.45;;;16.85;;
16775;SDS011;8505;49.456;8.164;2022-12-10T00:11:04;27.52;;;16.25;;
16775;SDS011;8505;49.456;8.164;2022-12-10T00:13:34;28.17;;;16.50;;
16775;SDS011;8505;49.456;8.164;2022-12-10T00:16:06;27.45;;;15.57;;
16775;SDS011;8505;49.456;8.164;2022-12-10T00:18:36;29.45;;;16.65;;
16775;SDS011;8505;49.456;8.164;2022-12-10T00:21:05;26.65;;;16.30;;
16775;SDS011;8505;49.456;8.164;2022-12-10T00:23:34;27.97;;;16.47;;
16775;SDS011;8505;49.456;8.164;2022-12-10T00:26:04;28.17;;;16.75;;
16775;SDS011;8505;49.456;8.164;2022-12-10T00:28:33;28.85;;;17.35;;
16775;SDS011;8505;49.456;8.164;2022-12-10T00:31:03;27.47;;;16.73;;
16775;SDS011;8505;49.456;8.164;2022-12-10T00:33:32;27.13;;;16.50;;
16775;SDS011;8505;49.456;8.164;2022-12-10T00:36:01;27.25;;;16.52;;
16775;SDS011;8505;49.456;8.164;2022-12-10T00:38:29;27.08;;;15.93;;
16775;SDS011;8505;49.456;8.164;2022-12-10T00:40:57;27.05;;;16.33;;
16775;SDS011;8505;49.456;8.164;2022-12-10T00:43:26;26.40;;;16.30;;
16775;SDS011;8505;49.456;8.164;2022-12-10T00:45:54;26.42;;;15.88;;
16775;SDS011;8505;49.456;8.164;2022-12-10T00:48:22;26.70;;;15.90;;
16775;SDS011;8505;49.456;8.164;2022-12-10T00:50:57;26.70;;;16.05;;
16775;SDS011;8505;49.456;8.164;2022-12-10T00:53:26;28.52;;;16.77;;
16775;SDS011;8505;49.456;8.164;2022-12-10T00:55:55;27.93;;;16.67;;
16775;SDS011;8505;49.456;8.164;2022-12-10T00:58:23;29.02;;;16.60;;
16775;SDS011;8505;49.456;8.164;2022-12-10T01:01:05;33.92;;;18.88;;
16775;SDS011;8505;49.456;8.164;2022-12-10T01:06:54;27.25;;;16.73;;
16775;SDS011;8505;49.456;8.164;2022-12-10T01:09:22;26.75;;;15.95;;
16775;SDS011;8505;49.456;8.164;2022-12-10T01:11:52;27.60;;;16.60;;
16775;SDS011;8505;49.456;8.164;2022-12-10T01:14:22;26.90;;;16.23;;
16775;SDS011;8505;49.456;8.164;2022-12-10T01:16:53;26.38;;;15.60;;
16775;SDS011;8505;49.456;8.164;2022-12-10T01:19:22;26.40;;;15.65;;
16775;SDS011;8505;49.456;8.164;2022-12-10T01:21:49;25.45;;;15.60;;
16775;SDS011;8505;49.456;8.164;2022-12-10T01:24:18;26.70;;;15.75;;
16775;SDS011;8505;49.456;8.164;2022-12-10T01:26:45;24.95;;;15.15;;
16775;SDS011;8505;49.456;8.164;2022-12-10T01:29:13;25.42;;;15.50;;
16775;SDS011;8505;49.456;8.164;2022-12-10T01:31:43;24.73;;;15.23;;
16775;SDS011;8505;49.456;8.164;2022-12-10T01:34:14;25.27;;;15.52;;
16775;SDS011;8505;49.456;8.164;2022-12-10T01:36:43;24.70;;;15.43;;
16775;SDS011;8505;49.456;8.164;2022-12-10T01:39:17;26.23;;;15.43;;
16775;SDS011;8505;49.456;8.164;2022-12-10T01:41:48;25.55;;;15.38;;
16775;SDS011;8505;49.456;8.164;2022-12-10T01:47:24;26.50;;;16.02;;
16775;SDS011;8505;49.456;8.164;2022-12-10T01:49:52;25.80;;;15.65;;
16775;SDS011;8505;49.456;8.164;2022-12-10T01:52:20;25.90;;;15.35;;
16775;SDS011;8505;49.456;8.164;2022-12-10T01:54:47;27.52;;;15.68;;
16775;SDS011;8505;49.456;8.164;2022-12-10T01:57:16;28.83;;;15.82;;
16775;SDS011;8505;49.456;8.164;2022-12-10T01:59:46;25.33;;;15.80;;
16775;SDS011;8505;49.456;8.164;2022-12-10T02:02:21;29.33;;;16.45;;
16775;SDS011;8505;49.456;8.164;2022-12-10T02:05:00;27.33;;;16.23;;
16775;SDS011;8505;49.456;8.164;2022-12-10T02:07:37;28.88;;;16.42;;
16775;SDS011;8505;49.456;8.164;2022-12-10T02:10:16;28.27;;;16.67;;
16775;SDS011;8505;49.456;8.164;2022-12-10T02:12:52;28.55;;;16.45;;
16775;SDS011;8505;49.456;8.164;2022-12-10T02:15:24;26.25;;;15.60;;
16775;SDS011;8505;49.456;8.164;2022-12-10T02:17:56;26.20;;;15.30;;
16775;SDS011;8505;49.456;8.164;2022-12-10T02:20:30;28.42;;;16.25;;
16775;SDS011;8505;49.456;8.164;2022-12-10T02:23:01;26.57;;;15.77;;
16775;SDS011;8505;49.456;8.164;2022-12-10T02:25:32;25.45;;;15.45;;
16775;SDS011;8505;49.456;8.164;2022-12-10T02:28:08;28.48;;;16.02;;
16775;SDS011;8505;49.456;8.164;2022-12-10T02:30:42;27.00;;;15.25;;
16775;SDS011;8505;49.456;8.164;2022-12-10T02:33:11;27.13;;;15.30;;
16775;SDS011;8505;49.456;8.164;2022-12-10T02:35:41;26.65;;;15.27;;
16775;SDS011;8505;49.456;8.164;2022-12-10T02:38:11;27.13;;;15.40;;
16775;SDS011;8505;49.456;8.164;2022-12-10T02:40:43;24.13;;;14.75;;
16775;SDS011;8505;49.456;8.164;2022-12-10T02:43:14;27.75;;;15.73;;
16775;SDS011;8505;49.456;8.164;2022-12-10T02:45:44;28.20;;;16.10;;
16775;SDS011;8505;49.456;8.164;2022-12-10T02:48:12;28.10;;;15.35;;
16775;SDS011;8505;49.456;8.164;2022-12-10T02:50:41;27.48;;;16.10;;
16775;SDS011;8505;49.456;8.164;2022-12-10T02:53:08;28.48;;;16.30;;
16775;SDS011;8505;49.456;8.164;2022-12-10T02:55:40;28.45;;;16.25;;
16775;SDS011;8505;49.456;8.164;2022-12-10T02:58:20;27.15;;;15.65;;
16775;SDS011;8505;49.456;8.164;2022-12-10T03:00:58;28.65;;;16.20;;
16775;SDS011;8505;49.456;8.164;2022-12-10T03:03:36;26.15;;;15.40;;
16775;SDS011;8505;49.456;8.164;2022-12-10T03:06:12;29.20;;;16.40;;
16775;SDS011;8505;49.456;8.164;2022-12-10T03:08:46;28.47;;;15.80;;
16775;SDS011;8505;49.456;8.164;2022-12-10T03:11:16;28.50;;;15.98;;
16775;SDS011;8505;49.456;8.164;2022-12-10T03:13:54;27.23;;;16.55;;
16775;SDS011;8505;49.456;8.164;2022-12-10T03:16:30;29.02;;;16.08;;
16775;SDS011;8505;49.456;8.164;2022-12-10T03:19:03;28.00;;;15.77;;
16775;SDS011;8505;49.456;8.164;2022-12-10T03:21:34;29.63;;;16.67;;
16775;SDS011;8505;49.456;8.164;2022-12-10T03:24:05;30.92;;;17.15;;
16775;SDS011;8505;49.456;8.164;2022-12-10T03:26:33;27.63;;;15.90;;
16775;SDS011;8505;49.456;8.164;2022-12-10T03:29:03;29.42;;;17.33;;
16775;SDS011;8505;49.456;8.164;2022-12-10T03:31:36;31.15;;;17.02;;
16775;SDS011;8505;49.456;8.164;2022-12-10T03:34:06;27.88;;;16.45;;
16775;SDS011;8505;49.456;8.164;2022-12-10T03:36:35;29.85;;;16.83;;
16775;SDS011;8505;49.456;8.164;2022-12-10T03:39:05;28.25;;;16.45;;
16775;SDS011;8505;49.456;8.164;2022-12-10T03:41:33;28.05;;;16.80;;
16775;SDS011;8505;49.456;8.164;2022-12-10T03:44:00;29.33;;;16.77;;
16775;SDS011;8505;49.456;8.164;2022-12-10T03:46:29;30.53;;;17.37;;
16775;SDS011;8505;49.456;8.164;2022-12-10T03:48:59;26.70;;;15.95;;
16775;SDS011;8505;49.456;8.164;2022-12-10T03:51:28;27.02;;;16.27;;
16775;SDS011;8505;49.456;8.164;2022-12-10T03:53:56;28.92;;;16.25;;
16775;SDS011;8505;49.456;8.164;2022-12-10T03:56:23;28.42;;;16.65;;
16775;SDS011;8505;49.456;8.164;2022-12-10T03:58:51;30.70;;;16.85;;
16775;SDS011;8505;49.456;8.164;2022-12-10T04:01:19;30.33;;;17.10;;
16775;SDS011;8505;49.456;8.164;2022-12-10T04:03:48;29.77;;;17.80;;
16775;SDS011;8505;49.456;8.164;2022-12-10T04:06:18;31.13;;;17.20;;
16775;SDS011;8505;49.456;8.164;2022-12-10T04:08:46;30.08;;;17.15;;
16775;SDS011;8505;49.456;8.164;2022-12-10T04:11:23;30.75;;;17.40;;
16775;SDS011;8505;49.456;8.164;2022-12-10T04:13:51;32.35;;;18.13;;
16775;SDS011;8505;49.456;8.164;2022-12-10T04:16:33;32.47;;;17.95;;
16775;SDS011;8505;49.456;8.164;2022-12-10T04:19:03;32.30;;;17.80;;
16775;SDS011;8505;49.456;8.164;2022-12-10T04:21:34;30.17;;;17.25;;
16775;SDS011;8505;49.456;8.164;2022-12-10T04:24:20;30.80;;;17.15;;
16775;SDS011;8505;49.456;8.164;2022-12-10T04:27:07;30.65;;;16.73;;
16775;SDS011;8505;49.456;8.164;2022-12-10T04:29:38;29.60;;;16.63;;
16775;SDS011;8505;49.456;8.164;2022-12-10T04:32:07;28.63;;;16.30;;
16775;SDS011;8505;49.456;8.164;2022-12-10T04:34:35;29.75;;;16.95;;
16775;SDS011;8505;49.456;8.164;2022-12-10T04:37:04;26.17;;;15.77;;
16775;SDS011;8505;49.456;8.164;2022-12-10T04:39:33;27.52;;;15.77;;
16775;SDS011;8505;49.456;8.164;2022-12-10T04:42:01;27.92;;;15.77;;
16775;SDS011;8505;49.456;8.164;2022-12-10T04:44:28;26.27;;;15.25;;
16775;SDS011;8505;49.456;8.164;2022-12-10T04:46:56;27.60;;;16.20;;
16775;SDS011;8505;49.456;8.164;2022-12-10T04:49:24;26.98;;;15.30;;
16775;SDS011;8505;49.456;8.164;2022-12-10T04:51:52;24.35;;;14.45;;
16775;SDS011;8505;49.456;8.164;2022-12-10T04:54:22;24.90;;;14.10;;
16775;SDS011;8505;49.456;8.164;2022-12-10T04:56:50;25.30;;;14.60;;
16775;SDS011;8505;49.456;8.164;2022-12-10T04:59:18;24.47;;;14.20;;
16775;SDS011;8505;49.456;8.164;2022-12-10T05:01:45;23.70;;;14.65;;
16775;SDS011;8505;49.456;8.164;2022-12-10T05:04:14;24.77;;;14.27;;
16775;SDS011;8505;49.456;8.164;2022-12-10T05:06:43;24.48;;;14.10;;
16775;SDS011;8505;49.456;8.164;2022-12-10T05:09:11;26.13;;;14.95;;
16775;SDS011;8505;49.456;8.164;2022-12-10T05:11:41;26.50;;;15.43;;
16775;SDS011;8505;49.456;8.164;2022-12-10T05:14:10;24.63;;;13.93;;
16775;SDS011;8505;49.456;8.164;2022-12-10T05:16:38;24.95;;;14.35;;
16775;SDS011;8505;49.456;8.164;2022-12-10T05:19:07;24.27;;;14.35;;
16775;SDS011;8505;49.456;8.164;2022-12-10T05:21:35;25.00;;;14.10;;
16775;SDS011;8505;49.456;8.164;2022-12-10T05:24:21;24.98;;;14.65;;
16775;SDS011;8505;49.456;8.164;2022-12-10T05:26:50;24.90;;;14.60;;
16775;SDS011;8505;49.456;8.164;2022-12-10T05:29:17;23.58;;;14.23;;
16775;SDS011;8505;49.456;8.164;2022-12-10T05:31:46;23.98;;;14.13;;
16775;SDS011;8505;49.456;8.164;2022-12-10T05:34:14;24.67;;;13.85;;
16775;SDS011;8505;49.456;8.164;2022-12-10T05:36:41;22.80;;;13.98;;
16775;SDS011;8505;49.456;8.164;2022-12-10T05:39:09;22.80;;;13.52;;
16775;SDS011;8505;49.456;8.164;2022-12-10T05:41:37;24.45;;;13.40;;
16775;SDS011;8505;49.456;8.164;2022-12-10T05:44:08;22.65;;;13.23;;
16775;SDS011;8505;49.456;8.164;2022-12-10T05:46:37;23.25;;;13.43;;
16775;SDS011;8505;49.456;8.164;2022-12-10T05:49:05;22.50;;;14.07;;
16775;SDS011;8505;49.456;8.164;2022-12-10T05:51:34;22.40;;;13.70;;
16775;SDS011;8505;49.456;8.164;2022-12-10T05:54:05;22.45;;;13.32;;
16775;SDS011;8505;49.456;8.164;2022-12-10T05:56:35;22.38;;;13.80;;
16775;SDS011;8505;49.456;8.164;2022-12-10T05:59:04;22.38;;;13.30;;
16775;SDS011;8505;49.456;8.164;2022-12-10T06:01:42;23.25;;;13.07;;
16775;SDS011;8505;49.456;8.164;2022-12-10T06:04:10;22.65;;;12.93;;
16775;SDS011;8505;49.456;8.164;2022-12-10T06:06:38;22.33;;;13.07;;
16775;SDS011;8505;49.456;8.164;2022-12-10T06:09:07;22.50;;;13.02;;
16775;SDS011;8505;49.456;8.164;2022-12-10T06:11:38;22.38;;;13.18;;
16775;SDS011;8505;49.456;8.164;2022-12-10T06:14:06;20.40;;;11.88;;
16775;SDS011;8505;49.456;8.164;2022-12-10T06:16:33;20.27;;;12.02;;
16775;SDS011;8505;49.456;8.164;2022-12-10T06:19:03;22.85;;;13.15;;
16775;SDS011;8505;49.456;8.164;2022-12-10T06:21:30;23.10;;;12.93;;
16775;SDS011;8505;49.456;8.164;2022-12-10T06:23:58;21.43;;;13.17;;
16775;SDS011;8505;49.456;8.164;2022-12-10T06:26:26;21.95;;;13.25;;
16775;SDS011;8505;49.456;8.164;2022-12-10T06:28:53;24.20;;;13.65;;
16775;SDS011;8505;49.456;8.164;2022-12-10T06:31:21;24.60;;;14.63;;
16775;SDS011;8505;49.456;8.164;2022-12-10T06:33:50;21.15;;;13.13;;
16775;SDS011;8505;49.456;8.164;2022-12-10T06:36:19;22.33;;;13.68;;
16775;SDS011;8505;49.456;8.164;2022-12-10T06:38:47;21.38;;;13.38;;
16775;SDS011;8505;49.456;8.164;2022-12-10T06:41:16;21.23;;;12.65;;
16775;SDS011;8505;49.456;8.164;2022-12-10T06:43:46;22.50;;;13.43;;
16775;SDS011;8505;49.456;8.164;2022-12-10T06:46:15;20.35;;;12.95;;
16775;SDS011;8505;49.456;8.164;2022-12-10T06:48:44;20.10;;;12.57;;
16775;SDS011;8505;49.456;8.164;2022-12-10T06:51:12;20.83;;;12.95;;
16775;SDS011;8505;49.456;8.164;2022-12-10T06:53:42;21.08;;;13.00;;
16775;SDS011;8505;49.456;8.164;2022-12-10T06:56:11;21.73;;;13.07;;
16775;SDS011;8505;49.456;8.164;2022-12-10T06:58:40;21.77;;;12.60;;
16775;SDS011;8505;49.456;8.164;2022-12-10T07:01:10;19.95;;;12.60;;
16775;SDS011;8505;49.456;8.164;2022-12-10T07:03:40;20.60;;;12.60;;
16775;SDS011;8505;49.456;8.164;2022-12-10T07:06:09;20.90;;;12.63;;
16775;SDS011;8505;49.456;8.164;2022-12-10T07:08:38;19.50;;;11.90;;
16775;SDS011;8505;49.456;8.164;2022-12-10T07:11:07;20.05;;;12.25;;
16775;SDS011;8505;49.456;8.164;2022-12-10T07:13:36;20.40;;;12.50;;
16775;SDS011;8505;49.456;8.164;2022-12-10T07:16:11;21.88;;;13.25;;
16775;SDS011;8505;49.456;8.164;2022-12-10T07:18:40;20.17;;;12.32;;
16775;SDS011;8505;49.456;8.164;2022-12-10T07:21:15;20.05;;;11.98;;
16775;SDS011;8505;49.456;8.164;2022-12-10T07:23:43;21.15;;;12.50;;
16775;SDS011;8505;49.456;8.164;2022-12-10T07:26:12;21.63;;;12.32;;
16775;SDS011;8505;49.456;8.164;2022-12-10T07:28:40;18.77;;;11.23;;
16775;SDS011;8505;49.456;8.164;2022-12-10T07:31:18;19.55;;;11.27;;
16775;SDS011;8505;49.456;8.164;2022-12-10T07:33:47;19.83;;;10.95;;
16775;SDS011;8505;49.456;8.164;2022-12-10T07:36:14;18.80;;;11.45;;
16775;SDS011;8505;49.456;8.164;2022-12-10T07:38:42;16.70;;;10.65;;
16775;SDS011;8505;49.456;8.164;2022-12-10T07:41:10;17.63;;;10.90;;
16775;SDS011;8505;49.456;8.164;2022-12-10T07:43:41;20.35;;;12.32;;
16775;SDS011;8505;49.456;8.164;2022-12-10T07:46:11;19.95;;;11.80;;
16775;SDS011;8505;49.456;8.164;2022-12-10T07:48:42;18.25;;;11.13;;
16775;SDS011;8505;49.456;8.164;2022-12-10T07:51:13;18.73;;;11.30;;
16775;SDS011;8505;49.456;8.164;2022-12-10T07:53:41;19.02;;;11.50;;
16775;SDS011;8505;49.456;8.164;2022-12-10T07:56:10;19.05;;;11.50;;
16775;SDS011;8505;49.456;8.164;2022-12-10T07:58:42;18.30;;;11.52;;
16775;SDS011;8505;49.456;8.164;2022-12-10T08:01:11;18.05;;;11.30;;
16775;SDS011;8505;49.456;8.164;2022-12-10T08:03:40;22.27;;;13.70;;
16775;SDS011;8505;49.456;8.164;2022-12-10T08:06:10;20.38;;;12.55;;
16775;SDS011;8505;49.456;8.164;2022-12-10T08:08:40;19.42;;;11.82;;
16775;SDS011;8505;49.456;8.164;2022-12-10T08:11:09;21.05;;;12.85;;
16775;SDS011;8505;49.456;8.164;2022-12-10T08:13:37;20.63;;;12.52;;
16775;SDS011;8505;49.456;8.164;2022-12-10T08:16:07;22.33;;;12.88;;
16775;SDS011;8505;49.456;8.164;2022-12-10T08:18:37;20.02;;;12.55;;
16775;SDS011;8505;49.456;8.164;2022-12-10T08:21:05;19.88;;;12.27;;
16775;SDS011;8505;49.456;8.164;2022-12-10T08:23:34;17.70;;;11.00;;
16775;SDS011;8505;49.456;8.164;2022-12-10T08:26:02;20.83;;;12.37;;
16775;SDS011;8505;49.456;8.164;2022-12-10T08:28:31;20.42;;;12.73;;
16775;SDS011;8505;49.456;8.164;2022-12-10T08:30:59;18.88;;;11.95;;
16775;SDS011;8505;49.456;8.164;2022-12-10T08:33:28;18.55;;;11.65;;
16775;SDS011;8505;49.456;8.164;2022-12-10T08:35:57;18.83;;;11.90;;
16775;SDS011;8505;49.456;8.164;2022-12-10T08:38:27;16.45;;;10.90;;
16775;SDS011;8505;49.456;8.164;2022-12-10T08:40:56;19.10;;;11.35;;
16775;SDS011;8505;49.456;8.164;2022-12-10T08:43:24;17.48;;;10.55;;
16775;SDS011;8505;49.456;8.164;2022-12-10T08:45:51;16.85;;;10.80;;
16775;SDS011;8505;49.456;8.164;2022-12-10T08:48:20;18.27;;;10.80;;
16775;SDS011;8505;49.456;8.164;2022-12-10T08:50:51;17.38;;;10.77;;
16775;SDS011;8505;49.456;8.164;2022-12-10T08:53:18;16.75;;;10.15;;
16775;SDS011;8505;49.456;8.164;2022-12-10T08:55:49;16.63;;;10.55;;
16775;SDS011;8505;49.456;8.164;2022-12-10T08:58:17;14.70;;;9.80;;
16775;SDS011;8505;49.456;8.164;2022-12-10T09:00:44;17.73;;;10.00;;
16775;SDS011;8505;49.456;8.164;2022-12-10T09:03:12;16.85;;;10.88;;
16775;SDS011;8505;49.456;8.164;2022-12-10T09:05:41;16.98;;;10.68;;
16775;SDS011;8505;49.456;8.164;2022-12-10T09:08:10;14.10;;;9.48;;
16775;SDS011;8505;49.456;8.164;2022-12-10T09:10:39;16.10;;;9.93;;
16775;SDS011;8505;49.456;8.164;2022-12-10T09:13:07;16.77;;;10.05;;
16775;SDS011;8505;49.456;8.164;2022-12-10T09:15:34;18.30;;;11.00;;
16775;SDS011;8505;49.456;8.164;2022-12-10T09:18:02;22.60;;;12.13;;
16775;SDS011;8505;49.456;8.164;2022-12-10T09:20:30;19.55;;;11.20;;
16775;SDS011;8505;49.456;8.164;2022-12-10T09:22:58;16.83;;;10.05;;
16775;SDS011;8505;49.456;8.164;2022-12-10T09:25:27;17.27;;;10.57;;
16775;SDS011;8505;49.456;8.164;2022-12-10T09:27:55;18.27;;;11.45;;
16775;SDS011;8505;49.456;8.164;2022-12-10T09:30:22;18.20;;;10.80;;
16775;SDS011;8505;49.456;8.164;2022-12-10T09:32:50;16.58;;;10.70;;
16775;SDS011;8505;49.456;8.164;2022-12-10T09:35:18;20.23;;;12.50;;
16775;SDS011;8505;49.456;8.164;2022-12-10T09:37:45;14.68;;;9.20;;
16775;SDS011;8505;49.456;8.164;2022-12-10T09:40:14;13.25;;;8.65;;
16775;SDS011;8505;49.456;8.164;2022-12-10T09:42:46;17.20;;;11.23;;
16775;SDS011;8505;49.456;8.164;2022-12-10T09:45:22;19.58;;;12.02;;
16775;SDS011;8505;49.456;8.164;2022-12-10T09:47:58;18.13;;;11.00;;
16775;SDS011;8505;49.456;8.164;2022-12-10T09:50:33;16.65;;;10.15;;
16775;SDS011;8505;49.456;8.164;2022-12-10T09:53:17;15.07;;;9.82;;
16775;SDS011;8505;49.456;8.164;2022-12-10T09:55:48;15.02;;;9.75;;
16775;SDS011;8505;49.456;8.164;2022-12-10T09:58:19;15.82;;;9.45;;
16775;SDS011;8505;49.456;8.164;2022-12-10T10:00:56;13.05;;;8.77;;
16775;SDS011;8505;49.456;8.164;2022-12-10T10:03:36;14.77;;;9.48;;
16775;SDS011;8505;49.456;8.164;2022-12-10T10:06:06;12.95;;;8.70;;
16775;SDS011;8505;49.456;8.164;2022-12-10T10:08:38;14.43;;;9.07;;
16775;SDS011;8505;49.456;8.164;2022-12-10T10:11:09;13.30;;;8.68;;
16775;SDS011;8505;49.456;8.164;2022-12-10T10:13:42;14.13;;;9.02;;
16775;SDS011;8505;49.456;8.164;2022-12-10T10:16:20;14.43;;;9.05;;
16775;SDS011;8505;49.456;8.164;2022-12-10T10:18:52;15.20;;;9.73;;
16775;SDS011;8505;49.456;8.164;2022-12-10T10:21:25;17.08;;;10.32;;
16775;SDS011;8505;49.456;8.164;2022-12-10T10:23:54;14.93;;;9.65;;
16775;SDS011;8505;49.456;8.164;2022-12-10T10:26:24;16.23;;;9.80;;
16775;SDS011;8505;49.456;8.164;2022-12-10T10:28:55;13.27;;;8.57;;
16775;SDS011;8505;49.456;8.164;2022-12-10T10:31:28;14.43;;;8.93;;
16775;SDS011;8505;49.456;8.164;2022-12-10T10:33:57;13.43;;;8.77;;
16775;SDS011;8505;49.456;8.164;2022-12-10T10:36:27;15.80;;;9.73;;
16775;SDS011;8505;49.456;8.164;2022-12-10T10:38:58;14.27;;;8.50;;
16775;SDS011;8505;49.456;8.164;2022-12-10T10:41:35;15.10;;;9.00;;
16775;SDS011;8505;49.456;8.164;2022-12-10T10:44:11;17.43;;;10.70;;
16775;SDS011;8505;49.456;8.164;2022-12-10T10:46:42;13.27;;;8.70;;
16775;SDS011;8505;49.456;8.164;2022-12-10T10:49:19;15.60;;;8.95;;
16775;SDS011;8505;49.456;8.164;2022-12-10T10:51:50;12.23;;;8.02;;
16775;SDS011;8505;49.456;8.164;2022-12-10T10:54:30;12.30;;;8.40;;
16775;SDS011;8505;49.456;8.164;2022-12-10T10:57:03;14.32;;;9.23;;
16775;SDS011;8505;49.456;8.164;2022-12-10T10:59:39;15.23;;;9.75;;
16775;SDS011;8505;49.456;8.164;2022-12-10T11:02:15;15.50;;;9.95;;
16775;SDS011;8505;49.456;8.164;2022-12-10T11:04:47;16.77;;;10.38;;
16775;SDS011;8505;49.456;8.164;2022-12-10T11:07:19;12.80;;;8.38;;
16775;SDS011;8505;49.456;8.164;2022-12-10T11:09:49;13.40;;;8.30;;
16775;SDS011;8505;49.456;8.164;2022-12-10T11:12:35;11.73;;;8.07;;
16775;SDS011;8505;49.456;8.164;2022-12-10T11:15:27;11.18;;;7.60;;
16775;SDS011;8505;49.456;8.164;2022-12-10T11:17:58;12.55;;;8.02;;
16775;SDS011;8505;49.456;8.164;2022-12-10T11:20:27;11.88;;;8.23;;
16775;SDS011;8505;49.456;8.164;2022-12-10T11:22:57;15.32;;;9.55;;
16775;SDS011;8505;49.456;8.164;2022-12-10T11:25:29;29.63;;;18.13;;
16775;SDS011;8505;49.456;8.164;2022-12-10T11:28:15;17.25;;;10.77;;
16775;SDS011;8505;49.456;8.164;2022-12-10T11:30:59;15.00;;;9.70;;
16775;SDS011;8505;49.456;8.164;2022-12-10T11:33:42;12.95;;;8.90;;
16775;SDS011;8505;49.456;8.164;2022-12-10T11:36:22;14.32;;;9.40;;
16775;SDS011;8505;49.456;8.164;2022-12-10T11:39:01;12.90;;;8.70;;
16775;SDS011;8505;49.456;8.164;2022-12-10T11:41:38;12.55;;;8.48;;
16775;SDS011;8505;49.456;8.164;2022-12-10T11:44:16;14.07;;;9.15;;
16775;SDS011;8505;49.456;8.164;2022-12-10T11:46:57;13.65;;;8.90;;
16775;SDS011;8505;49.456;8.164;2022-12-10T11:49:35;14.13;;;8.82;;
16775;SDS011;8505;49.456;8.164;2022-12-10T11:52:11;14.02;;;8.85;;
16775;SDS011;8505;49.456;8.164;2022-12-10T11:54:52;13.87;;;9.43;;
16775;SDS011;8505;49.456;8.164;2022-12-10T11:57:38;14.75;;;8.30;;
16775;SDS011;8505;49.456;8.164;2022-12-10T12:00:14;12.00;;;8.07;;
16775;SDS011;8505;49.456;8.164;2022-12-10T12:02:55;11.30;;;7.50;;
16775;SDS011;8505;49.456;8.164;2022-12-10T12:05:36;13.10;;;8.07;;
16775;SDS011;8505;49.456;8.164;2022-12-10T12:08:17;10.60;;;7.25;;
16775;SDS011;8505;49.456;8.164;2022-12-10T12:11:00;10.20;;;6.60;;
16775;SDS011;8505;49.456;8.164;2022-12-10T12:13:51;11.20;;;6.65;;
16775;SDS011;8505;49.456;8.164;2022-12-10T12:16:26;9.57;;;6.13;;
16775;SDS011;8505;49.456;8.164;2022-12-10T12:18:59;10.00;;;6.75;;
16775;SDS011;8505;49.456;8.164;2022-12-10T12:21:29;10.02;;;6.72;;
16775;SDS011;8505;49.456;8.164;2022-12-10T12:23:58;9.63;;;6.20;;
16775;SDS011;8505;49.456;8.164;2022-12-10T12:26:31;9.47;;;6.23;;
16775;SDS011;8505;49.456;8.164;2022-12-10T12:29:06;10.10;;;6.53;;
16775;SDS011;8505;49.456;8.164;2022-12-10T12:31:42;9.60;;;6.25;;
16775;SDS011;8505;49.456;8.164;2022-12-10T12:34:16;8.80;;;5.57;;
16775;SDS011;8505;49.456;8.164;2022-12-10T12:36:48;8.25;;;5.80;;
16775;SDS011;8505;49.456;8.164;2022-12-10T12:39:17;8.30;;;5.65;;
16775;SDS011;8505;49.456;8.164;2022-12-10T12:41:53;8.10;;;5.90;;
16775;SDS011;8505;49.456;8.164;2022-12-10T12:44:30;8.23;;;5.75;;
16775;SDS011;8505;49.456;8.164;2022-12-10T12:47:05;10.00;;;6.30;;
16775;SDS011;8505;49.456;8.164;2022-12-10T12:49:47;15.50;;;9.10;;
16775;SDS011;8505;49.456;8.164;2022-12-10T12:52:20;37.30;;;18.02;;
16775;SDS011;8505;49.456;8.164;2022-12-10T12:54:59;15.35;;;8.95;;
16775;SDS011;8505;49.456;8.164;2022-12-10T12:57:33;9.38;;;6.20;;
16775;SDS011;8505;49.456;8.164;2022-12-10T13:00:09;10.53;;;6.33;;
16775;SDS011;8505;49.456;8.164;2022-12-10T13:02:44;9.90;;;6.95;;
16775;SDS011;8505;49.456;8.164;2022-12-10T13:05:23;11.20;;;7.60;;
16775;SDS011;8505;49.456;8.164;2022-12-10T13:10:56;12.15;;;7.88;;
16775;SDS011;8505;49.456;8.164;2022-12-10T13:13:29;13.10;;;8.57;;
16775;SDS011;8505;49.456;8.164;2022-12-10T13:19:16;12.75;;;7.25;;
16775;SDS011;8505;49.456;8.164;2022-12-10T13:22:04;10.25;;;6.78;;
16775;SDS011;8505;49.456;8.164;2022-12-10T13:24:43;11.68;;;8.02;;
16775;SDS011;8505;49.456;8.164;2022-12-10T13:27:16;12.18;;;8.20;;
16775;SDS011;8505;49.456;8.164;2022-12-10T13:29:46;11.65;;;8.10;;
16775;SDS011;8505;49.456;8.164;2022-12-10T13:32:22;10.45;;;7.30;;
16775;SDS011;8505;49.456;8.164;2022-12-10T13:37:54;10.77;;;7.50;;
16775;SDS011;8505;49.456;8.164;2022-12-10T13:40:25;12.25;;;8.30;;
16775;SDS011;8505;49.456;8.164;2022-12-10T13:43:23;11.93;;;8.27;;
16775;SDS011;8505;49.456;8.164;2022-12-10T13:46:20;11.77;;;7.95;;
16775;SDS011;8505;49.456;8.164;2022-12-10T13:48:50;12.18;;;8.10;;
16775;SDS011;8505;49.456;8.164;2022-12-10T13:51:31;15.13;;;8.75;;
16775;SDS011;8505;49.456;8.164;2022-12-10T13:54:24;14.45;;;9.20;;
16775;SDS011;8505;49.456;8.164;2022-12-10T13:57:08;15.33;;;9.57;;
16775;SDS011;8505;49.456;8.164;2022-12-10T13:59:47;15.85;;;9.32;;
16775;SDS011;8505;49.456;8.164;2022-12-10T14:08:36;16.00;;;10.38;;
16775;SDS011;8505;49.456;8.164;2022-12-10T14:11:11;13.85;;;8.73;;
16775;SDS011;8505;49.456;8.164;2022-12-10T14:13:47;13.40;;;9.10;;
16775;SDS011;8505;49.456;8.164;2022-12-10T14:16:20;13.98;;;9.15;;
16775;SDS011;8505;49.456;8.164;2022-12-10T14:18:51;14.20;;;9.30;;
16775;SDS011;8505;49.456;8.164;2022-12-10T14:21:21;15.43;;;9.65;;
16775;SDS011;8505;49.456;8.164;2022-12-10T14:23:51;18.80;;;11.55;;
16775;SDS011;8505;49.456;8.164;2022-12-10T14:26:25;17.77;;;11.13;;
16775;SDS011;8505;49.456;8.164;2022-12-10T14:28:54;23.73;;;13.05;;
16775;SDS011;8505;49.456;8.164;2022-12-10T14:31:25;21.75;;;12.50;;
16775;SDS011;8505;49.456;8.164;2022-12-10T14:33:59;22.40;;;12.80;;
16775;SDS011;8505;49.456;8.164;2022-12-10T14:36:29;22.08;;;12.45;;
16775;SDS011;8505;49.456;8.164;2022-12-10T14:38:59;20.95;;;12.07;;
16775;SDS011;8505;49.456;8.164;2022-12-10T14:41:30;25.27;;;13.57;;
16775;SDS011;8505;49.456;8.164;2022-12-10T14:44:06;22.27;;;13.32;;
16775;SDS011;8505;49.456;8.164;2022-12-10T14:46:36;31.88;;;19.25;;
16775;SDS011;8505;49.456;8.164;2022-12-10T14:49:06;25.83;;;16.00;;
16775;SDS011;8505;49.456;8.164;2022-12-10T14:51:40;27.58;;;16.88;;
16775;SDS011;8505;49.456;8.164;2022-12-10T14:54:22;23.42;;;14.45;;
16775;SDS011;8505;49.456;8.164;2022-12-10T14:56:53;26.80;;;16.00;;
16775;SDS011;8505;49.456;8.164;2022-12-10T14:59:23;25.95;;;15.82;;
16775;SDS011;8505;49.456;8.164;2022-12-10T15:01:57;34.47;;;19.55;;
16775;SDS011;8505;49.456;8.164;2022-12-10T15:04:30;42.22;;;25.80;;
16775;SDS011;8505;49.456;8.164;2022-12-10T15:07:08;21.85;;;13.85;;
16775;SDS011;8505;49.456;8.164;2022-12-10T15:09:40;37.37;;;21.10;;
16775;SDS011;8505;49.456;8.164;2022-12-10T15:12:23;27.13;;;16.17;;
16775;SDS011;8505;49.456;8.164;2022-12-10T15:14:57;34.10;;;18.98;;
16775;SDS011;8505;49.456;8.164;2022-12-10T15:17:36;32.33;;;18.55;;
16775;SDS011;8505;49.456;8.164;2022-12-10T15:20:19;25.05;;;15.20;;
16775;SDS011;8505;49.456;8.164;2022-12-10T15:22:48;29.10;;;18.93;;
16775;SDS011;8505;49.456;8.164;2022-12-10T15:25:19;32.67;;;20.45;;
16775;SDS011;8505;49.456;8.164;2022-12-10T15:27:55;49.47;;;29.15;;